Time;durP1;ratioP1;P1;durP2;ratioP2;P2;SDS_P1;SDS_P2;PMS_P1;PMS_P2;Temp;Humidity;BMP_temperature;BMP_pressure;BME280_temperature;BME280_humidity;BME280_pressure;Samples;Min_cycle;Max_cycle;Signal;HPM_P1;HPM_P2
2022/05/10 00:00:32;;;;;;;8.10;5.30;;;;;;;8.74;71.45;97494.13;107709;1268;35533;-80
2022/05/10 00:03:10;;;;;;;8.20;5.30;;;;;;;8.79;71.36;97496.52;107734;1270;38461;-80
2022/05/10 00:05:43;;;;;;;8.40;5.30;;;;;;;8.76;71.30;97494.48;107697;1270;37766;-79
2022/05/10 00:08:16;;;;;;;9.50;5.40;;;;;;;8.74;71.27;97495.72;107697;1268;34736;-80
2022/05/10 00:10:48;;;;;;;8.80;5.40;;;;;;;8.75;71.31;97493.40;107662;1268;49168;-80
2022/05/10 00:13:19;;;;;;;9.60;5.10;;;;;;;8.72;71.21;97491.98;107712;1271;43894;-80
2022/05/10 00:15:50;;;;;;;8.30;5.20;;;;;;;8.68;71.11;97493.61;107638;1270;46047;-80
2022/05/10 00:18:26;;;;;;;7.30;5.40;;;;;;;8.61;71.09;97492.37;107710;1270;34045;-80
2022/05/10 00:20:57;;;;;;;9.70;5.30;;;;;;;8.57;71.35;97492.82;107693;1268;37464;-80
2022/05/10 00:23:28;;;;;;;8.10;4.90;;;;;;;8.56;71.36;97497.14;107641;1268;60200;-80
2022/05/10 00:25:59;;;;;;;6.50;4.30;;;;;;;8.58;71.46;97490.92;107658;1268;43678;-80
2022/05/10 00:28:30;;;;;;;7.40;5.40;;;;;;;8.52;71.27;97490.11;107649;1268;41732;-80
2022/05/10 00:31:01;;;;;;;8.50;4.90;;;;;;;8.36;71.17;97492.46;107666;1270;48098;-80
2022/05/10 00:33:33;;;;;;;7.10;5.30;;;;;;;8.29;71.41;97490.23;107703;1270;48562;-80
2022/05/10 00:36:05;;;;;;;10.10;5.10;;;;;;;8.30;71.67;97492.73;107640;1268;43027;-80
2022/05/10 00:38:38;;;;;;;6.70;3.90;;;;;;;8.26;71.84;97489.87;107662;1270;43420;-80
2022/05/10 00:41:13;;;;;;;9.60;4.50;;;;;;;8.13;72.21;97488.94;107721;1270;50524;-80
2022/05/10 00:43:47;;;;;;;7.10;4.30;;;;;;;7.91;72.61;97481.87;107687;1268;35148;-80
2022/05/10 00:46:23;;;;;;;6.40;3.90;;;;;;;7.79;73.27;97481.84;107657;1268;34614;-80
2022/05/10 00:49:02;;;;;;;7.00;4.60;;;;;;;7.63;73.49;97482.08;107651;1270;44067;-80
2022/05/10 00:51:39;;;;;;;8.20;4.70;;;;;;;7.51;74.26;97485.23;107694;1270;40318;-80
2022/05/10 00:54:23;;;;;;;6.90;4.60;;;;;;;7.52;74.88;97481.89;107784;1271;39052;-80
2022/05/10 00:57:00;;;;;;;8.40;3.80;;;;;;;7.58;75.31;97473.98;107749;1269;32882;-80
2022/05/10 00:59:41;;;;;;;8.00;4.30;;;;;;;7.61;75.62;97474.09;107721;1269;43211;-80
2022/05/10 01:02:27;;;;;;;6.40;4.30;;;;;;;7.67;76.11;97467.86;107723;1271;40980;-79
2022/05/10 01:05:03;;;;;;;7.30;4.40;;;;;;;7.77;75.86;97469.34;107700;1270;43890;-80
2022/05/10 01:07:42;;;;;;;7.90;4.20;;;;;;;7.86;75.65;97470.27;107713;1269;48214;-80
2022/05/10 01:10:18;;;;;;;9.20;4.30;;;;;;;7.99;75.25;97470.84;107742;1268;45133;-79
2022/05/10 01:12:55;;;;;;;9.70;4.60;;;;;;;8.04;74.79;97470.63;107687;1268;42491;-80
2022/05/10 01:15:28;;;;;;;7.70;4.70;;;;;;;8.06;74.30;97473.98;107708;1270;32680;-80
2022/05/10 01:18:00;;;;;;;6.10;4.40;;;;;;;7.97;74.24;97473.00;107651;1270;33338;-80
2022/05/10 01:20:37;;;;;;;6.70;4.00;;;;;;;7.71;74.05;97471.77;107677;1269;41107;-80
2022/05/10 01:23:31;;;;;;;6.70;4.30;;;;;;;7.48;74.48;97468.41;107872;1268;31792;-80
2022/05/10 01:26:09;;;;;;;8.60;4.20;;;;;;;7.29;75.04;97467.96;107681;1271;38993;-80
2022/05/10 01:28:46;;;;;;;6.40;4.30;;;;;;;7.19;75.40;97463.04;107805;1271;34899;-80
2022/05/10 01:31:22;;;;;;;7.70;4.10;;;;;;;7.04;75.39;97463.58;107655;1271;42882;-80
2022/05/10 01:33:59;;;;;;;7.60;4.60;;;;;;;6.96;75.83;97461.48;107718;1268;33533;-80
2022/05/10 01:36:37;;;;;;;7.40;3.90;;;;;;;7.05;76.16;97457.96;107692;1268;34478;-80
2022/05/10 01:39:14;;;;;;;5.70;3.90;;;;;;;7.22;76.35;97459.30;107795;1268;35808;-80
2022/05/10 01:41:55;;;;;;;7.80;4.30;;;;;;;7.19;75.74;97453.59;107620;1268;44130;-80
2022/05/10 01:44:31;;;;;;;5.90;4.20;;;;;;;7.14;76.20;97452.75;107709;1270;34088;-80
2022/05/10 01:47:07;;;;;;;7.90;4.80;;;;;;;7.09;76.65;97452.41;107680;1270;41620;-80
2022/05/10 01:49:42;;;;;;;8.60;4.30;;;;;;;7.11;76.89;97451.13;107729;1270;45310;-80
2022/05/10 01:52:19;;;;;;;6.90;4.40;;;;;;;7.13;76.71;97451.80;107713;1270;43706;-80
2022/05/10 01:55:25;;;;;;;8.20;4.80;;;;;;;7.14;76.63;97449.33;107691;1270;37653;-80
2022/05/10 01:58:00;;;;;;;8.20;4.70;;;;;;;7.20;76.52;97448.45;107693;1268;40086;-80
2022/05/10 02:00:33;;;;;;;6.40;4.40;;;;;;;7.15;76.69;97450.36;107694;1268;33717;-80
2022/05/10 02:03:13;;;;;;;12.10;4.70;;;;;;;7.12;77.32;97449.04;107708;1269;30826;-80
2022/05/10 02:05:51;;;;;;;8.30;4.70;;;;;;;7.13;77.86;97448.90;107719;1268;34991;-80
2022/05/10 02:08:32;;;;;;;5.70;4.20;;;;;;;7.11;77.88;97449.70;107704;1268;31564;-80
2022/05/10 02:11:09;;;;;;;7.60;4.80;;;;;;;7.09;78.07;97447.83;107726;1269;45231;-80
2022/05/10 02:13:45;;;;;;;7.80;4.10;;;;;;;7.17;78.09;97448.02;107779;1268;32968;-80
2022/05/10 02:16:22;;;;;;;6.50;4.60;;;;;;;7.24;77.53;97453.00;107723;1268;31340;-79
2022/05/10 02:18:59;;;;;;;8.00;4.60;;;;;;;7.22;77.13;97449.73;107731;1270;40100;-80
2022/05/10 02:21:38;;;;;;;7.60;4.40;;;;;;;7.15;76.85;97448.51;107645;1271;41055;-80
2022/05/10 02:24:14;;;;;;;7.90;4.50;;;;;;;7.10;76.88;97447.95;107714;1268;38359;-80
2022/05/10 02:26:49;;;;;;;6.40;3.80;;;;;;;7.08;76.82;97445.44;107666;1270;40711;-79
2022/05/10 02:29:26;;;;;;;7.40;4.40;;;;;;;7.05;77.21;97443.04;107653;1270;62631;-79
2022/05/10 02:34:54;;;;;;;6.30;4.30;;;;;;;6.91;78.00;97438.52;107709;1269;45089;-80
2022/05/10 02:37:25;;;;;;;9.10;4.20;;;;;;;6.87;78.38;97438.00;107732;1270;34908;-80
2022/05/10 02:39:56;;;;;;;7.90;4.20;;;;;;;6.79;78.51;97439.65;107706;1268;40556;-80
2022/05/10 02:42:28;;;;;;;6.20;4.50;;;;;;;6.74;78.96;97436.32;107659;1271;54948;-80
2022/05/10 02:44:59;;;;;;;8.40;5.00;;;;;;;6.75;79.44;97434.61;107690;1268;37042;-80
2022/05/10 02:47:33;;;;;;;7.40;5.00;;;;;;;6.74;79.36;97430.45;107680;1271;34695;-79
2022/05/10 02:50:07;;;;;;;11.60;4.60;;;;;;;6.73;79.60;97432.41;107702;1268;36133;-80
2022/05/10 02:52:39;;;;;;;7.50;4.20;;;;;;;6.76;79.69;97430.83;107759;1271;35309;-80
2022/05/10 02:55:15;;;;;;;6.70;4.50;;;;;;;6.81;79.68;97428.73;107756;1268;73470;-79
2022/05/10 02:57:47;;;;;;;6.10;4.20;;;;;;;6.88;79.16;97431.63;107695;1269;33155;-80
2022/05/10 03:00:20;;;;;;;7.50;4.80;;;;;;;6.87;78.89;97431.24;107725;1269;34723;-79
2022/05/10 03:02:55;;;;;;;9.00;4.70;;;;;;;6.82;78.57;97431.38;107692;1270;41270;-80
2022/05/10 03:05:26;;;;;;;6.60;4.30;;;;;;;6.82;78.43;97429.75;107721;1270;34204;-79
2022/05/10 03:07:57;;;;;;;8.50;4.60;;;;;;;6.83;78.65;97431.40;107672;1268;38994;-79
2022/05/10 03:10:28;;;;;;;4.70;3.80;;;;;;;6.78;79.13;97436.46;107689;1268;35831;-80
2022/05/10 03:13:00;;;;;;;7.30;4.60;;;;;;;6.72;79.97;97437.49;107725;1270;37533;-79
2022/05/10 03:15:30;;;;;;;6.60;4.90;;;;;;;6.69;80.41;97436.63;107717;1268;33695;-79
2022/05/10 03:18:01;;;;;;;8.30;4.50;;;;;;;6.62;80.39;97436.98;107661;1271;41387;-79
2022/05/10 03:20:32;;;;;;;8.80;4.60;;;;;;;6.55;80.55;97435.04;107624;1270;38216;-80
2022/05/10 03:23:01;;;;;;;;;;;;;;;6.49;80.47;97434.39;107674;1271;35341;-80
2022/05/10 03:25:33;;;;;;;5.80;4.40;;;;;;;6.43;80.64;97429.83;107707;1268;33213;-79
2022/05/10 03:28:06;;;;;;;10.90;4.60;;;;;;;6.40;80.82;97430.41;107735;1268;32906;-79
2022/05/10 03:30:37;;;;;;;5.80;4.00;;;;;;;6.36;81.03;97428.11;107825;1270;37783;-79
2022/05/10 03:33:09;;;;;;;5.90;4.40;;;;;;;6.30;81.09;97429.02;107791;1268;32888;-79
2022/05/10 03:35:39;;;;;;;6.30;4.40;;;;;;;6.30;81.54;97430.60;107709;1268;36289;-80
2022/05/10 03:38:10;;;;;;;7.00;4.10;;;;;;;6.37;82.17;97427.77;107778;1268;44619;-79
2022/05/10 03:40:41;;;;;;;8.00;4.70;;;;;;;6.43;82.52;97424.98;107682;1268;44736;-78
2022/05/10 03:43:12;;;;;;;9.20;4.80;;;;;;;6.55;83.20;97421.91;107648;1268;46857;-79
2022/05/10 03:45:43;;;;;;;8.30;4.70;;;;;;;6.67;83.05;97419.21;107625;1270;32001;-79
2022/05/10 03:48:14;;;;;;;7.30;4.30;;;;;;;6.72;82.56;97419.36;107651;1270;33156;-79
2022/05/10 03:50:45;;;;;;;7.70;4.40;;;;;;;6.72;82.20;97413.50;107688;1269;43155;-79
2022/05/10 03:53:16;;;;;;;8.90;4.90;;;;;;;6.67;82.14;97410.20;107698;1268;31274;-79
2022/05/10 03:55:46;;;;;;;9.90;4.60;;;;;;;6.63;82.55;97402.91;107615;1270;36664;-79
2022/05/10 03:58:17;;;;;;;7.70;5.00;;;;;;;6.72;83.20;97406.14;107667;1270;42542;-80
2022/05/10 04:00:48;;;;;;;7.50;4.80;;;;;;;6.88;83.37;97405.02;107669;1268;43423;-79
2022/05/10 04:03:19;;;;;;;9.80;4.80;;;;;;;7.08;83.32;97401.45;107670;1268;40575;-80
2022/05/10 04:05:49;;;;;;;6.90;4.30;;;;;;;7.25;83.21;97397.53;107648;1268;38226;-79
2022/05/10 04:08:21;;;;;;;6.60;4.30;;;;;;;7.39;83.09;97395.92;107706;1268;37229;-80
2022/05/10 04:10:52;;;;;;;5.90;4.70;;;;;;;7.49;83.10;97394.30;107735;1270;38090;-79
2022/05/10 04:13:23;;;;;;;9.00;4.80;;;;;;;7.54;83.02;97396.34;107712;1268;31973;-80
2022/05/10 04:15:54;;;;;;;9.10;4.90;;;;;;;7.65;83.23;97395.56;107628;1271;45118;-80
2022/05/10 04:18:25;;;;;;;7.30;5.30;;;;;;;7.88;82.96;97397.45;107734;1268;37317;-80
2022/05/10 04:20:56;;;;;;;9.20;5.30;;;;;;;8.16;82.72;97392.78;107644;1271;40749;-80
2022/05/10 04:23:28;;;;;;;8.50;4.80;;;;;;;8.43;82.35;97392.23;107679;1268;40424;-80
2022/05/10 04:26:05;;;;;;;8.10;5.50;;;;;;;8.68;81.94;97392.95;107675;1268;34501;-80
2022/05/10 04:28:37;;;;;;;8.10;4.90;;;;;;;8.95;81.63;97391.30;107806;1268;34180;-80
2022/05/10 04:31:08;;;;;;;8.80;4.80;;;;;;;9.21;81.28;97389.93;107658;1271;44797;-80
2022/05/10 04:33:39;;;;;;;7.20;4.70;;;;;;;9.43;80.73;97392.48;107792;1271;35029;-80
2022/05/10 04:36:11;;;;;;;10.50;5.30;;;;;;;9.69;79.98;97390.40;107600;1271;35409;-80
2022/05/10 04:38:43;;;;;;;6.40;4.40;;;;;;;9.98;79.59;97394.48;107683;1268;37656;-80
2022/05/10 04:41:28;;;;;;;7.00;4.90;;;;;;;10.29;79.04;97400.92;107648;1268;53001;-81
2022/05/10 04:44:01;;;;;;;7.80;4.90;;;;;;;10.70;78.53;97396.66;107588;1271;36192;-80
2022/05/10 04:46:35;;;;;;;10.90;4.80;;;;;;;11.67;78.06;97392.92;107694;1268;47904;-81
2022/05/10 04:49:07;;;;;;;7.60;4.70;;;;;;;13.25;75.98;97387.06;107750;1268;41213;-81
2022/05/10 04:51:39;;;;;;;6.10;4.40;;;;;;;14.43;70.52;97387.45;107728;1268;43159;-81
2022/05/10 04:54:10;;;;;;;6.60;4.30;;;;;;;15.02;66.65;97390.17;107744;1268;41181;-81
2022/05/10 04:56:42;;;;;;;8.50;4.60;;;;;;;15.14;65.45;97386.53;107610;1268;43094;-80
2022/05/10 04:59:13;;;;;;;8.70;4.30;;;;;;;15.32;64.81;97385.32;107641;1268;33648;-81
2022/05/10 05:01:44;;;;;;;5.00;4.20;;;;;;;16.03;64.09;97385.79;107675;1268;39598;-80
2022/05/10 05:04:15;;;;;;;7.40;3.90;;;;;;;16.66;62.91;97384.10;107636;1271;43137;-81
2022/05/10 05:06:46;;;;;;;6.70;4.10;;;;;;;17.61;63.36;97380.64;107668;1268;36905;-81
2022/05/10 05:09:17;;;;;;;5.70;3.50;;;;;;;18.84;61.29;97380.84;107667;1268;56938;-81
2022/05/10 05:11:48;;;;;;;7.80;3.70;;;;;;;19.50;57.51;97386.35;107558;1271;55272;-81
2022/05/10 05:14:19;;;;;;;5.70;3.70;;;;;;;20.06;55.70;97386.11;107584;1271;37452;-81
2022/05/10 05:16:53;;;;;;;7.10;3.70;;;;;;;20.51;53.93;97384.38;107688;1268;46608;-81
2022/05/10 05:19:24;;;;;;;8.30;3.60;;;;;;;21.12;53.04;97381.53;107687;1268;35664;-81
2022/05/10 05:21:55;;;;;;;6.70;3.80;;;;;;;21.33;49.71;97380.41;107615;1268;48115;-81
2022/05/10 05:24:26;;;;;;;5.60;3.60;;;;;;;21.02;49.95;97383.93;107650;1268;34640;-81
2022/05/10 05:26:57;;;;;;;5.30;3.70;;;;;;;20.73;48.79;97385.48;107621;1271;46832;-81
2022/05/10 05:29:28;;;;;;;5.30;3.40;;;;;;;20.13;48.42;97382.48;107577;1270;39134;-81
2022/05/10 05:32:01;;;;;;;7.00;4.40;;;;;;;19.57;48.43;97385.13;107713;1268;34131;-82
2022/05/10 05:34:32;;;;;;;5.80;4.30;;;;;;;19.53;49.20;97384.80;107577;1268;62080;-81
2022/05/10 05:39:52;;;;;;;5.00;3.40;;;;;;;21.68;47.19;97385.23;107661;1268;36926;-81
2022/05/10 05:42:23;;;;;;;3.90;3.20;;;;;;;22.49;46.78;97382.63;107590;1268;48080;-82
2022/05/10 05:44:54;;;;;;;7.40;3.30;;;;;;;23.13;43.93;97379.36;107603;1271;56445;-82
2022/05/10 05:47:25;;;;;;;7.20;3.70;;;;;;;23.37;42.66;97378.45;107593;1270;52210;-82
2022/05/10 05:49:56;;;;;;;6.60;3.80;;;;;;;23.61;41.89;97378.39;107589;1268;36804;-82
2022/05/10 05:52:27;;;;;;;7.30;3.30;;;;;;;24.07;41.25;97381.42;107660;1268;50948;-82
2022/05/10 05:54:58;;;;;;;5.10;3.20;;;;;;;24.73;41.42;97383.31;107669;1268;58413;-82
2022/05/10 05:57:29;;;;;;;6.60;3.10;;;;;;;25.47;40.02;97388.65;107588;1268;47202;-82
2022/05/10 06:00:00;;;;;;;4.70;3.00;;;;;;;26.67;40.49;97385.38;107698;1268;43582;-82
2022/05/10 06:02:31;;;;;;;4.00;3.40;;;;;;;27.26;38.04;97385.13;107655;1268;45570;-82
2022/05/10 06:05:02;;;;;;;5.20;3.20;;;;;;;27.85;39.03;97385.64;107583;1268;63132;-82
2022/05/10 06:07:33;;;;;;;8.00;3.30;;;;;;;28.69;36.79;97387.44;107663;1268;41118;-82
2022/05/10 06:10:07;;;;;;;4.80;3.00;;;;;;;29.27;36.51;97386.14;107571;1271;44071;-82
2022/05/10 06:12:40;;;;;;;7.60;3.30;;;;;;;29.64;36.28;97390.49;107771;1271;43992;-83
2022/05/10 06:15:14;;;;;;;5.90;3.40;;;;;;;30.72;36.72;97388.70;107722;1267;74246;-82
2022/05/10 06:17:47;;;;;;;5.10;3.30;;;;;;;31.35;34.14;97384.91;107623;1268;43404;-82
2022/05/10 06:20:22;;;;;;;4.60;3.00;;;;;;;31.73;34.00;97384.94;107679;1267;61335;-83
2022/05/10 06:22:53;;;;;;;5.40;2.80;;;;;;;32.24;33.38;97387.19;107576;1270;70140;-83
2022/05/10 06:25:25;;;;;;;6.00;2.80;;;;;;;33.05;33.14;97386.09;107657;1268;38321;-83
2022/05/10 06:27:58;;;;;;;6.90;3.10;;;;;;;34.05;32.01;97386.39;107637;1268;86383;-83
2022/05/10 06:30:30;;;;;;;3.80;2.60;;;;;;;34.24;30.76;97384.79;107577;1270;55442;-83
2022/05/10 06:33:02;;;;;;;7.00;3.00;;;;;;;34.59;29.53;97381.61;106765;1268;1227401;-83
2022/05/10 06:35:33;;;;;;;4.40;3.00;;;;;;;34.23;27.84;97384.18;107549;1268;85775;-83
2022/05/10 06:38:27;;;;;;;6.20;2.90;;;;;;;33.22;27.39;97377.54;107666;1268;46350;-83
2022/05/10 06:41:01;;;;;;;3.60;2.90;;;;;;;32.51;28.90;97376.83;107619;1268;52058;-83
2022/05/10 06:43:35;;;;;;;3.70;3.00;;;;;;;33.19;28.01;97373.95;107622;1268;86812;-83
2022/05/10 06:46:10;;;;;;;4.10;3.10;;;;;;;32.65;26.96;97376.08;107690;1268;38388;-83
2022/05/10 06:48:45;;;;;;;4.10;2.60;;;;;;;31.85;28.21;97377.38;107664;1268;47687;-80
2022/05/10 06:51:18;;;;;;;4.00;2.80;;;;;;;32.81;29.95;97379.30;107576;1270;55249;-83
2022/05/10 06:53:50;;;;;;;4.10;3.00;;;;;;;33.99;29.22;97379.31;107709;1268;36664;-83
2022/05/10 06:56:22;;;;;;;4.30;3.00;;;;;;;34.99;28.30;97380.77;106501;1269;1373617;-83
2022/05/10 06:58:53;;;;;;;3.00;2.70;;;;;;;35.59;26.97;97378.98;107613;1268;32527;-83
2022/05/10 07:01:25;;;;;;;6.40;3.00;;;;;;;35.62;25.48;97379.70;107567;1268;66020;-83
2022/05/10 07:03:56;;;;;;;4.50;3.00;;;;;;;35.61;26.46;97378.31;107621;1268;83506;-83
2022/05/10 07:06:27;;;;;;;4.60;3.10;;;;;;;35.78;24.17;97379.05;107511;1270;125685;-83
2022/05/10 07:08:58;;;;;;;5.70;3.10;;;;;;;34.20;23.59;97376.56;107662;1268;109932;-84
2022/05/10 07:11:29;;;;;;;4.60;3.20;;;;;;;33.19;25.00;97379.05;107640;1268;50035;-83
2022/05/10 07:14:00;;;;;;;5.00;3.10;;;;;;;33.71;26.99;97384.59;107613;1268;77311;-83
2022/05/10 07:16:31;;;;;;;4.80;2.80;;;;;;;35.14;26.85;97381.38;107630;1268;36361;-84
2022/05/10 07:19:02;;;;;;;5.80;3.10;;;;;;;36.13;26.21;97381.23;107629;1268;61830;-84
2022/05/10 07:21:33;;;;;;;4.60;3.10;;;;;;;36.80;23.92;97382.84;107623;1268;41067;-84
2022/05/10 07:24:05;;;;;;;5.20;2.90;;;;;;;35.18;22.62;97383.48;107690;1268;32058;-84
2022/05/10 07:26:36;;;;;;;5.00;2.90;;;;;;;34.43;24.86;97380.98;107891;1268;46992;-83
2022/05/10 07:29:07;;;;;;;7.10;3.00;;;;;;;35.59;25.40;97378.88;107466;1270;110474;-84
2022/05/10 07:31:38;;;;;;;4.70;2.90;;;;;;;36.60;24.47;97378.65;107664;1268;37861;-83
2022/05/10 07:34:09;;;;;;;3.80;2.70;;;;;;;36.83;22.29;97374.79;107679;1268;110448;-84
2022/05/10 07:36:40;;;;;;;5.00;2.80;;;;;;;35.93;21.73;97378.11;107786;1268;36584;-84
2022/05/10 07:39:14;;;;;;;4.50;3.00;;;;;;;34.81;22.10;97377.94;107733;1268;37063;-84
2022/05/10 07:41:46;;;;;;;3.80;2.60;;;;;;;35.07;24.38;97381.02;107659;1267;90919;-84
2022/05/10 07:44:17;;;;;;;5.70;2.80;;;;;;;36.05;22.46;97376.23;107603;1268;68969;-83
2022/05/10 07:46:48;;;;;;;3.30;2.60;;;;;;;36.22;23.63;97380.64;107536;1270;71333;-83
2022/05/10 07:49:19;;;;;;;3.80;2.70;;;;;;;37.03;22.40;97382.73;107639;1270;35149;-83
2022/05/10 07:51:49;;;;;;;5.30;3.20;;;;;;;36.61;20.63;97385.09;107609;1268;104307;-84
2022/05/10 07:54:21;;;;;;;4.00;2.90;;;;;;;34.94;20.30;97389.64;106582;1268;1487491;-83
2022/05/10 07:56:52;;;;;;;6.10;3.00;;;;;;;34.47;22.89;97392.25;107653;1268;32321;-84
2022/05/10 07:59:22;;;;;;;5.60;2.80;;;;;;;36.00;23.28;97388.83;107584;1268;89084;-83
2022/05/10 08:01:53;;;;;;;3.60;2.70;;;;;;;37.05;21.96;97387.59;107631;1268;84902;-84
2022/05/10 08:04:24;;;;;;;3.60;2.70;;;;;;;37.30;20.20;97383.38;107593;1270;68101;-83
2022/05/10 08:06:55;;;;;;;2.70;2.40;;;;;;;35.85;19.47;97389.61;107669;1270;59107;-84
2022/05/10 08:09:26;;;;;;;3.40;2.40;;;;;;;35.31;21.37;97391.56;107680;1268;42888;-84
2022/05/10 08:11:57;;;;;;;3.10;2.30;;;;;;;36.44;21.80;97385.82;107670;1268;40690;-84
2022/05/10 08:14:29;;;;;;;3.80;2.70;;;;;;;37.02;19.67;97384.55;107652;1270;46805;-84
2022/05/10 08:17:00;;;;;;;5.80;2.70;;;;;;;36.66;20.21;97386.57;107584;1268;58742;-83
2022/05/10 08:19:31;;;;;;;3.70;3.00;;;;;;;36.47;20.98;97382.44;107633;1268;50868;-83
2022/05/10 08:22:02;;;;;;;6.20;2.80;;;;;;;37.37;21.76;97382.07;107577;1270;54433;-84
2022/05/10 08:24:33;;;;;;;6.10;2.70;;;;;;;38.35;20.94;97380.65;107557;1268;59561;-84
2022/05/10 08:27:05;;;;;;;3.60;2.50;;;;;;;39.00;20.46;97382.50;107542;1270;35249;-84
2022/05/10 08:29:37;;;;;;;2.60;2.10;;;;;;;38.00;17.24;97382.38;107780;1268;37205;-84
2022/05/10 08:32:08;;;;;;;6.30;2.50;;;;;;;36.94;19.47;97380.42;107614;1270;41342;-83
2022/05/10 08:34:39;;;;;;;5.60;2.60;;;;;;;37.84;19.02;97378.15;107717;1268;65431;-82
2022/05/10 08:37:10;;;;;;;2.80;2.40;;;;;;;36.80;17.23;97374.35;107748;1268;30477;-84
2022/05/10 08:39:40;;;;;;;2.80;2.60;;;;;;;35.78;18.66;97376.14;107648;1268;50159;-84
2022/05/10 08:42:21;;;;;;;2.90;2.40;;;;;;;36.38;20.27;97372.94;107639;1268;42403;-81
2022/05/10 08:44:56;;;;;;;4.30;2.50;;;;;;;37.49;19.68;97366.09;107703;1267;42947;-83
2022/05/10 08:47:29;;;;;;;4.70;2.60;;;;;;;38.13;19.36;97366.21;107633;1268;53675;-83
2022/05/10 08:50:03;;;;;;;4.20;2.40;;;;;;;38.76;19.00;97365.16;107659;1268;43814;-83
2022/05/10 08:52:36;;;;;;;3.20;2.70;;;;;;;39.14;18.84;97361.36;107773;1268;53850;-83
2022/05/10 08:55:09;;;;;;;3.20;2.60;;;;;;;39.50;18.98;97361.67;107532;1270;50047;-83
2022/05/10 08:57:48;;;;;;;4.50;2.80;;;;;;;39.78;19.03;97361.89;107787;1268;33090;-83
2022/05/10 09:00:28;;;;;;;6.20;2.10;;;;;;;40.10;18.79;97361.23;107650;1268;46326;-81
2022/05/10 09:03:01;;;;;;;6.30;2.70;;;;;;;39.65;17.40;97361.25;107681;1268;43054;-83
2022/05/10 09:05:39;;;;;;;3.30;2.50;;;;;;;38.00;16.07;97363.05;107762;1270;49652;-84
2022/05/10 09:08:22;;;;;;;5.60;2.30;;;;;;;35.79;18.13;97357.83;107782;1268;37834;-83
2022/05/10 09:10:58;;;;;;;5.00;2.30;;;;;;;35.76;19.82;97354.73;107609;1268;52550;-83
2022/05/10 09:13:29;;;;;;;3.70;2.10;;;;;;;35.68;19.61;97351.44;107645;1268;33288;-82
2022/05/10 09:16:02;;;;;;;5.10;2.50;;;;;;;33.43;19.77;97350.59;107679;1268;101728;-83
2022/05/10 09:18:40;;;;;;;5.10;2.80;;;;;;;30.67;20.53;97350.80;107660;1268;39983;-82
2022/05/10 09:21:19;;;;;;;5.20;2.70;;;;;;;27.80;22.88;97345.95;107747;1268;35189;-77
2022/05/10 09:24:09;;;;;;;5.40;2.70;;;;;;;27.31;25.08;97347.86;107717;1268;31252;-81
2022/05/10 09:26:42;;;;;;;6.00;2.80;;;;;;;27.21;25.83;97341.83;107734;1268;38784;-82
2022/05/10 09:29:21;;;;;;;4.90;3.10;;;;;;;26.87;26.60;97334.02;107707;1268;40552;-81
2022/05/10 09:34:48;;;;;;;5.10;3.00;;;;;;;25.73;26.40;97328.02;107755;1268;37293;-81
2022/05/10 09:37:25;;;;;;;4.40;2.80;;;;;;;24.41;28.24;97329.77;107724;1268;45946;-81
2022/05/10 09:40:08;;;;;;;5.20;2.40;;;;;;;24.11;29.35;97322.06;107751;1268;34691;-81
2022/05/10 09:42:42;;;;;;;6.00;3.00;;;;;;;23.10;28.81;97325.81;107763;1268;44602;-81
2022/05/10 09:45:17;;;;;;;6.30;3.20;;;;;;;22.13;30.80;97323.42;107683;1268;46717;-81
2022/05/10 09:48:00;;;;;;;6.00;3.00;;;;;;;21.92;31.96;97324.14;107680;1268;45854;-80
2022/05/10 09:50:33;;;;;;;6.60;3.00;;;;;;;22.18;32.06;97327.21;107599;1270;44272;-81
2022/05/10 09:53:20;;;;;;;4.60;3.00;;;;;;;21.98;31.28;97325.61;107672;1267;36860;-81
2022/05/10 09:56:03;;;;;;;4.60;2.80;;;;;;;21.89;31.77;97327.63;107590;1270;43289;-81
2022/05/10 09:58:38;;;;;;;7.40;3.40;;;;;;;21.98;32.30;97315.19;107728;1268;30019;-81
2022/05/10 10:01:12;;;;;;;5.30;2.80;;;;;;;21.75;32.67;97309.39;107744;1269;45876;-81
2022/05/10 10:03:45;;;;;;;4.80;3.00;;;;;;;21.89;33.98;97303.91;107773;1268;42473;-81
2022/05/10 10:06:20;;;;;;;6.60;3.00;;;;;;;22.09;32.86;97302.14;107667;1268;66857;-81
2022/05/10 10:08:53;;;;;;;6.90;3.00;;;;;;;21.51;32.58;97304.13;107652;1268;41073;-82
2022/05/10 10:11:35;;;;;;;6.30;3.10;;;;;;;20.91;33.78;97302.95;107649;1270;41551;-81
2022/05/10 10:14:09;;;;;;;5.40;2.80;;;;;;;20.51;33.90;97301.94;107619;1268;77891;-81
2022/05/10 10:16:51;;;;;;;5.90;3.20;;;;;;;20.32;34.64;97302.34;107781;1270;56995;-81
2022/05/10 10:19:37;;;;;;;5.50;3.10;;;;;;;20.59;34.59;97302.33;107676;1268;45904;-81
2022/05/10 10:22:11;;;;;;;5.30;3.00;;;;;;;20.82;34.48;97301.48;107643;1270;109689;-81
2022/05/10 10:24:50;;;;;;;4.80;2.90;;;;;;;20.94;34.59;97297.77;107700;1268;43422;-79
2022/05/10 10:27:30;;;;;;;4.10;3.10;;;;;;;20.95;34.42;97296.10;107652;1268;71288;-82
2022/05/10 10:30:07;;;;;;;5.90;3.10;;;;;;;20.96;33.74;97291.89;107870;1268;31942;-81
2022/05/10 10:32:44;;;;;;;6.70;3.20;;;;;;;20.98;35.50;97294.40;107728;1268;41879;-81
2022/05/10 10:35:19;;;;;;;6.80;3.10;;;;;;;21.32;35.08;97292.31;107768;1268;42288;-81
2022/05/10 10:37:55;;;;;;;7.30;3.10;;;;;;;21.51;34.80;97287.58;107680;1268;34343;-81
2022/05/10 10:40:34;;;;;;;5.90;2.70;;;;;;;21.61;35.04;97281.38;107749;1268;31570;-81
2022/05/10 10:43:14;;;;;;;5.20;3.20;;;;;;;21.81;34.96;97277.27;107671;1268;45159;-81
2022/05/10 10:45:48;;;;;;;5.20;3.20;;;;;;;21.93;34.88;97272.83;107703;1270;89602;-81
2022/05/10 10:48:33;;;;;;;5.70;3.30;;;;;;;22.09;34.64;97271.66;107659;1268;50210;-80
2022/05/10 10:51:04;;;;;;;5.10;2.80;;;;;;;22.14;34.52;97268.68;107761;1270;41682;-81
2022/05/10 10:53:37;;;;;;;8.00;3.20;;;;;;;22.25;34.54;97265.85;107697;1268;37997;-80
2022/05/10 10:56:25;;;;;;;5.20;3.00;;;;;;;22.09;34.25;97269.66;107917;1268;38050;-81
2022/05/10 10:59:10;;;;;;;7.30;3.10;;;;;;;21.97;34.06;97268.39;107631;1270;44840;-81
2022/05/10 11:01:58;;;;;;;6.90;3.00;;;;;;;21.90;33.95;97264.92;107732;1270;43575;-82
2022/05/10 11:04:58;;;;;;;7.30;3.40;;;;;;;21.84;34.82;97262.80;107713;1268;35212;-81
2022/05/10 11:07:37;;;;;;;6.10;3.00;;;;;;;21.86;33.78;97259.11;107566;1270;44492;-81
2022/05/10 11:10:22;;;;;;;5.40;2.70;;;;;;;21.79;34.50;97255.52;107623;1270;44283;-81
2022/05/10 11:13:06;;;;;;;5.20;3.00;;;;;;;21.85;34.75;97248.51;107657;1268;49188;-81
2022/05/10 11:15:49;;;;;;;4.50;3.10;;;;;;;21.86;33.65;97245.13;107513;1270;232629;-81
2022/05/10 11:18:38;;;;;;;6.20;3.10;;;;;;;21.49;33.44;97239.55;107659;1270;43458;-80
2022/05/10 11:21:27;;;;;;;5.00;3.00;;;;;;;21.27;34.35;97238.42;107779;1268;41985;-81
2022/05/10 11:24:09;;;;;;;5.00;2.80;;;;;;;21.32;33.99;97235.52;107466;1270;36569;-81
2022/05/10 11:26:57;;;;;;;6.80;3.30;;;;;;;21.40;34.46;97226.30;107846;1270;36271;-81
2022/05/10 11:29:41;;;;;;;6.70;3.00;;;;;;;21.47;33.87;97222.77;107673;1268;33085;-81
2022/05/10 11:32:24;;;;;;;7.10;3.10;;;;;;;21.05;34.79;97224.77;107805;1268;39096;-81
2022/05/10 11:35:09;;;;;;;4.20;2.90;;;;;;;20.97;34.25;97222.08;107666;1267;40529;-81
2022/05/10 11:37:48;;;;;;;3.40;2.50;;;;;;;20.67;33.26;97225.89;107722;1268;42829;-81
2022/05/10 11:40:35;;;;;;;6.10;3.00;;;;;;;20.62;35.42;97220.95;107631;1268;42861;-81
2022/05/10 11:44:01;;;;;;;5.30;3.20;;;;;;;21.08;35.60;97218.29;107632;1269;34472;-81
2022/05/10 11:47:09;;;;;;;6.30;2.90;;;;;;;21.41;34.92;97213.32;107042;1276;31282;-81
2022/05/10 11:49:56;;;;;;;5.00;3.00;;;;;;;21.62;34.84;97211.71;107311;1274;42078;-81
2022/05/10 11:52:43;;;;;;;4.80;3.10;;;;;;;21.67;34.13;97214.64;107714;1268;33226;-82
2022/05/10 11:55:36;;;;;;;5.90;3.00;;;;;;;21.19;32.87;97209.92;107669;1268;55160;-81
2022/05/10 11:58:10;;;;;;;5.70;2.90;;;;;;;21.08;35.11;97203.61;107663;1268;42773;-81
2022/05/10 12:00:51;;;;;;;5.20;2.80;;;;;;;21.40;34.69;97195.80;107750;1270;42784;-81
2022/05/10 12:03:53;;;;;;;6.00;2.90;;;;;;;21.63;35.16;97197.64;107661;1268;44233;-81
2022/05/10 12:06:42;;;;;;;4.70;2.60;;;;;;;21.84;34.47;97193.84;107647;1268;34756;-81
2022/05/10 12:09:56;;;;;;;4.90;2.60;;;;;;;21.50;33.21;97189.10;107712;1268;44764;-81
2022/05/10 12:13:00;;;;;;;6.80;2.70;;;;;;;21.16;34.09;97181.76;107661;1268;42558;-81
2022/05/10 12:21:54;;;;;;;5.80;2.60;;;;;;;21.64;33.95;97172.83;107622;1270;41525;-81